sensor_id;sensor_type;location;lat;lon;timestamp;pressure;altitude;pressure_sealevel;temperature;humidity
19748;BME280;10032;51.386;12.516;2024-02-26T00:00:30;98924.41;;;3.20;100.00
19748;BME280;10032;51.386;12.516;2024-02-26T00:02:56;98913.00;;;3.13;100.00
19748;BME280;10032;51.386;12.516;2024-02-26T00:05:21;98914.53;;;3.09;100.00
19748;BME280;10032;51.386;12.516;2024-02-26T00:07:47;98909.72;;;3.00;100.00
19748;BME280;10032;51.386;12.516;2024-02-26T00:10:15;98914.38;;;2.93;100.00
19748;BME280;10032;51.386;12.516;2024-02-26T00:12:41;98918.00;;;2.98;100.00
19748;BME280;10032;51.386;12.516;2024-02-26T00:15:07;98914.28;;;2.99;100.00
19748;BME280;10032;51.386;12.516;2024-02-26T00:17:33;98903.47;;;2.94;100.00
19748;BME280;10032;51.386;12.516;2024-02-26T00:19:58;98901.84;;;2.93;100.00
19748;BME280;10032;51.386;12.516;2024-02-26T00:22:25;98902.84;;;2.92;100.00
19748;BME280;10032;51.386;12.516;2024-02-26T00:24:51;98899.38;;;2.92;100.00
19748;BME280;10032;51.386;12.516;2024-02-26T00:27:16;98897.50;;;2.92;100.00
19748;BME280;10032;51.386;12.516;2024-02-26T00:29:41;98893.44;;;2.90;100.00
19748;BME280;10032;51.386;12.516;2024-02-26T00:32:07;98898.44;;;2.86;100.00
19748;BME280;10032;51.386;12.516;2024-02-26T00:34:32;98890.06;;;2.83;100.00
19748;BME280;10032;51.386;12.516;2024-02-26T00:36:58;98887.03;;;2.79;100.00
19748;BME280;10032;51.386;12.516;2024-02-26T00:39:23;98901.47;;;2.78;100.00
19748;BME280;10032;51.386;12.516;2024-02-26T00:41:48;98894.38;;;2.72;100.00
19748;BME280;10032;51.386;12.516;2024-02-26T00:44:14;98899.72;;;2.72;100.00
19748;BME280;10032;51.386;12.516;2024-02-26T00:46:39;98892.72;;;2.71;100.00
19748;BME280;10032;51.386;12.516;2024-02-26T00:49:05;98884.03;;;2.76;100.00
19748;BME280;10032;51.386;12.516;2024-02-26T00:51:30;98891.00;;;2.77;100.00
19748;BME280;10032;51.386;12.516;2024-02-26T00:53:56;98892.06;;;2.76;100.00
19748;BME280;10032;51.386;12.516;2024-02-26T00:56:21;98887.97;;;2.73;100.00
19748;BME280;10032;51.386;12.516;2024-02-26T00:58:47;98879.97;;;2.73;100.00
19748;BME280;10032;51.386;12.516;2024-02-26T01:01:12;98881.81;;;2.73;100.00
19748;BME280;10032;51.386;12.516;2024-02-26T01:03:38;98871.09;;;2.73;100.00
19748;BME280;10032;51.386;12.516;2024-02-26T01:06:04;98866.09;;;2.76;100.00
19748;BME280;10032;51.386;12.516;2024-02-26T01:08:29;98871.00;;;2.79;100.00
19748;BME280;10032;51.386;12.516;2024-02-26T01:10:54;98874.13;;;2.76;100.00
19748;BME280;10032;51.386;12.516;2024-02-26T01:13:20;98868.66;;;2.71;100.00
19748;BME280;10032;51.386;12.516;2024-02-26T01:15:45;98870.75;;;2.69;100.00
19748;BME280;10032;51.386;12.516;2024-02-26T01:18:11;98875.41;;;2.62;100.00
19748;BME280;10032;51.386;12.516;2024-02-26T01:20:37;98866.66;;;2.55;100.00
19748;BME280;10032;51.386;12.516;2024-02-26T01:23:02;98867.81;;;2.48;100.00
19748;BME280;10032;51.386;12.516;2024-02-26T01:25:27;98865.03;;;2.43;100.00
19748;BME280;10032;51.386;12.516;2024-02-26T01:27:53;98862.22;;;2.38;100.00
19748;BME280;10032;51.386;12.516;2024-02-26T01:30:18;98857.47;;;2.40;100.00
19748;BME280;10032;51.386;12.516;2024-02-26T01:32:44;98853.06;;;2.45;100.00
19748;BME280;10032;51.386;12.516;2024-02-26T01:35:09;98857.94;;;2.48;100.00
19748;BME280;10032;51.386;12.516;2024-02-26T01:37:37;98843.31;;;2.51;100.00
19748;BME280;10032;51.386;12.516;2024-02-26T01:40:03;98837.03;;;2.57;100.00
19748;BME280;10032;51.386;12.516;2024-02-26T01:42:30;98840.44;;;2.64;100.00
19748;BME280;10032;51.386;12.516;2024-02-26T01:44:57;98836.00;;;2.69;100.00
19748;BME280;10032;51.386;12.516;2024-02-26T01:47:23;98836.56;;;2.71;100.00
19748;BME280;10032;51.386;12.516;2024-02-26T01:49:49;98833.34;;;2.81;100.00
19748;BME280;10032;51.386;12.516;2024-02-26T01:52:14;98831.94;;;2.90;100.00
19748;BME280;10032;51.386;12.516;2024-02-26T01:54:42;98822.41;;;2.94;100.00
19748;BME280;10032;51.386;12.516;2024-02-26T01:57:08;98816.81;;;2.95;100.00
19748;BME280;10032;51.386;12.516;2024-02-26T01:59:34;98814.25;;;3.00;100.00
19748;BME280;10032;51.386;12.516;2024-02-26T02:02:01;98813.91;;;3.08;100.00
19748;BME280;10032;51.386;12.516;2024-02-26T02:04:29;98810.53;;;3.13;100.00
19748;BME280;10032;51.386;12.516;2024-02-26T02:06:55;98806.09;;;3.18;100.00
19748;BME280;10032;51.386;12.516;2024-02-26T02:09:22;98806.47;;;3.22;100.00
19748;BME280;10032;51.386;12.516;2024-02-26T02:11:48;98800.63;;;3.25;100.00
19748;BME280;10032;51.386;12.516;2024-02-26T02:14:14;98805.75;;;3.26;100.00
19748;BME280;10032;51.386;12.516;2024-02-26T02:16:39;98805.63;;;3.21;100.00
19748;BME280;10032;51.386;12.516;2024-02-26T02:19:05;98804.25;;;3.19;100.00
19748;BME280;10032;51.386;12.516;2024-02-26T02:21:30;98795.88;;;3.15;100.00
19748;BME280;10032;51.386;12.516;2024-02-26T02:23:56;98804.97;;;3.14;100.00
19748;BME280;10032;51.386;12.516;2024-02-26T02:26:21;98801.69;;;3.12;100.00
19748;BME280;10032;51.386;12.516;2024-02-26T02:28:47;98807.28;;;2.99;100.00
19748;BME280;10032;51.386;12.516;2024-02-26T02:31:14;98811.47;;;2.95;100.00
19748;BME280;10032;51.386;12.516;2024-02-26T02:33:40;98807.75;;;2.96;100.00
19748;BME280;10032;51.386;12.516;2024-02-26T02:36:06;98807.63;;;2.91;100.00
19748;BME280;10032;51.386;12.516;2024-02-26T02:38:35;98811.25;;;2.97;100.00
19748;BME280;10032;51.386;12.516;2024-02-26T02:41:01;98807.28;;;2.99;100.00
19748;BME280;10032;51.386;12.516;2024-02-26T02:43:26;98801.00;;;3.05;100.00
19748;BME280;10032;51.386;12.516;2024-02-26T02:45:51;98803.06;;;3.15;100.00
19748;BME280;10032;51.386;12.516;2024-02-26T02:48:17;98804.34;;;3.24;100.00
19748;BME280;10032;51.386;12.516;2024-02-26T02:50:42;98802.00;;;3.27;100.00
19748;BME280;10032;51.386;12.516;2024-02-26T02:53:08;98810.59;;;3.29;100.00
19748;BME280;10032;51.386;12.516;2024-02-26T02:55:33;98819.78;;;3.33;100.00
19748;BME280;10032;51.386;12.516;2024-02-26T02:57:58;98823.88;;;3.36;100.00
19748;BME280;10032;51.386;12.516;2024-02-26T03:00:24;98830.03;;;3.36;100.00
19748;BME280;10032;51.386;12.516;2024-02-26T03:02:50;98832.94;;;3.35;100.00
19748;BME280;10032;51.386;12.516;2024-02-26T03:05:15;98836.19;;;3.37;100.00
19748;BME280;10032;51.386;12.516;2024-02-26T03:07:41;98838.63;;;3.38;100.00
19748;BME280;10032;51.386;12.516;2024-02-26T03:10:06;98848.28;;;3.39;100.00
19748;BME280;10032;51.386;12.516;2024-02-26T03:12:34;98845.03;;;3.37;100.00
19748;BME280;10032;51.386;12.516;2024-02-26T03:14:59;98857.38;;;3.38;100.00
19748;BME280;10032;51.386;12.516;2024-02-26T03:17:28;98856.31;;;3.39;100.00
19748;BME280;10032;51.386;12.516;2024-02-26T03:19:54;98852.34;;;3.42;100.00
19748;BME280;10032;51.386;12.516;2024-02-26T03:22:19;98847.25;;;3.40;100.00
19748;BME280;10032;51.386;12.516;2024-02-26T03:24:46;98843.03;;;3.44;100.00
19748;BME280;10032;51.386;12.516;2024-02-26T03:27:11;98841.63;;;3.53;100.00
19748;BME280;10032;51.386;12.516;2024-02-26T03:29:39;98836.38;;;3.58;100.00
19748;BME280;10032;51.386;12.516;2024-02-26T03:32:05;98838.56;;;3.61;100.00
19748;BME280;10032;51.386;12.516;2024-02-26T03:34:32;98843.94;;;3.61;100.00
19748;BME280;10032;51.386;12.516;2024-02-26T03:37:00;98843.69;;;3.63;100.00
19748;BME280;10032;51.386;12.516;2024-02-26T03:39:25;98842.31;;;3.60;100.00
19748;BME280;10032;51.386;12.516;2024-02-26T03:41:50;98852.78;;;3.62;100.00
19748;BME280;10032;51.386;12.516;2024-02-26T03:44:16;98852.22;;;3.60;100.00
19748;BME280;10032;51.386;12.516;2024-02-26T03:46:41;98852.22;;;3.60;100.00
19748;BME280;10032;51.386;12.516;2024-02-26T03:49:10;98850.81;;;3.57;100.00
19748;BME280;10032;51.386;12.516;2024-02-26T03:51:35;98854.91;;;3.60;100.00
19748;BME280;10032;51.386;12.516;2024-02-26T03:54:01;98855.94;;;3.59;100.00
19748;BME280;10032;51.386;12.516;2024-02-26T03:56:27;98853.50;;;3.57;100.00
19748;BME280;10032;51.386;12.516;2024-02-26T03:58:53;98860.94;;;3.55;100.00
19748;BME280;10032;51.386;12.516;2024-02-26T04:01:18;98860.84;;;3.50;100.00
19748;BME280;10032;51.386;12.516;2024-02-26T04:03:43;98849.22;;;3.45;100.00
19748;BME280;10032;51.386;12.516;2024-02-26T04:06:09;98850.84;;;3.46;100.00
19748;BME280;10032;51.386;12.516;2024-02-26T04:08:43;98857.13;;;3.51;100.00
19748;BME280;10032;51.386;12.516;2024-02-26T04:11:08;98859.81;;;3.51;100.00
19748;BME280;10032;51.386;12.516;2024-02-26T04:13:34;98860.16;;;3.55;100.00
19748;BME280;10032;51.386;12.516;2024-02-26T04:16:00;98855.94;;;3.59;100.00
19748;BME280;10032;51.386;12.516;2024-02-26T04:18:27;98854.31;;;3.58;100.00
19748;BME280;10032;51.386;12.516;2024-02-26T04:20:52;98855.84;;;3.54;100.00
19748;BME280;10032;51.386;12.516;2024-02-26T04:23:18;98861.19;;;3.54;100.00
19748;BME280;10032;51.386;12.516;2024-02-26T04:25:44;98865.16;;;3.51;100.00
19748;BME280;10032;51.386;12.516;2024-02-26T04:28:09;98854.34;;;3.46;100.00
19748;BME280;10032;51.386;12.516;2024-02-26T04:30:34;98847.59;;;3.44;100.00
19748;BME280;10032;51.386;12.516;2024-02-26T04:33:00;98847.34;;;3.45;100.00
19748;BME280;10032;51.386;12.516;2024-02-26T04:35:25;98851.31;;;3.43;100.00
19748;BME280;10032;51.386;12.516;2024-02-26T04:37:51;98848.41;;;3.44;100.00
19748;BME280;10032;51.386;12.516;2024-02-26T04:40:16;98844.66;;;3.45;100.00
19748;BME280;10032;51.386;12.516;2024-02-26T04:42:42;98851.06;;;3.44;100.00
19748;BME280;10032;51.386;12.516;2024-02-26T04:45:07;98842.25;;;3.44;100.00
19748;BME280;10032;51.386;12.516;2024-02-26T04:47:35;98846.31;;;3.46;100.00
19748;BME280;10032;51.386;12.516;2024-02-26T04:50:00;98851.66;;;3.46;100.00
19748;BME280;10032;51.386;12.516;2024-02-26T04:52:26;98847.09;;;3.47;100.00
19748;BME280;10032;51.386;12.516;2024-02-26T04:54:51;98840.97;;;3.46;100.00
19748;BME280;10032;51.386;12.516;2024-02-26T04:57:17;98843.03;;;3.44;100.00
19748;BME280;10032;51.386;12.516;2024-02-26T04:59:44;98849.44;;;3.43;100.00
19748;BME280;10032;51.386;12.516;2024-02-26T05:02:10;98852.13;;;3.43;100.00
19748;BME280;10032;51.386;12.516;2024-02-26T05:04:35;98855.84;;;3.42;100.00
19748;BME280;10032;51.386;12.516;2024-02-26T05:07:01;98857.47;;;3.43;100.00
19748;BME280;10032;51.386;12.516;2024-02-26T05:09:26;98853.41;;;3.41;100.00
19748;BME280;10032;51.386;12.516;2024-02-26T05:11:52;98866.56;;;3.42;100.00
19748;BME280;10032;51.386;12.516;2024-02-26T05:14:17;98863.06;;;3.42;100.00
19748;BME280;10032;51.386;12.516;2024-02-26T05:16:43;98869.81;;;3.44;100.00
19748;BME280;10032;51.386;12.516;2024-02-26T05:19:08;98870.03;;;3.43;100.00
19748;BME280;10032;51.386;12.516;2024-02-26T05:21:33;98877.94;;;3.49;100.00
19748;BME280;10032;51.386;12.516;2024-02-26T05:23:59;98872.25;;;3.46;100.00
19748;BME280;10032;51.386;12.516;2024-02-26T05:26:25;98876.31;;;3.48;100.00
19748;BME280;10032;51.386;12.516;2024-02-26T05:28:50;98872.59;;;3.49;100.00
19748;BME280;10032;51.386;12.516;2024-02-26T05:31:16;98873.09;;;3.46;100.00
19748;BME280;10032;51.386;12.516;2024-02-26T05:33:43;98870.63;;;3.45;100.00
19748;BME280;10032;51.386;12.516;2024-02-26T05:36:08;98877.84;;;3.44;100.00
19748;BME280;10032;51.386;12.516;2024-02-26T05:38:34;98879.72;;;3.44;100.00
19748;BME280;10032;51.386;12.516;2024-02-26T05:41:00;98870.03;;;3.43;100.00
19748;BME280;10032;51.386;12.516;2024-02-26T05:43:26;98872.16;;;3.41;100.00
19748;BME280;10032;51.386;12.516;2024-02-26T05:45:51;98866.91;;;3.34;100.00
19748;BME280;10032;51.386;12.516;2024-02-26T05:48:17;98879.72;;;3.32;100.00
19748;BME280;10032;51.386;12.516;2024-02-26T05:50:44;98872.63;;;3.26;100.00
19748;BME280;10032;51.386;12.516;2024-02-26T05:53:09;98874.03;;;3.17;100.00
19748;BME280;10032;51.386;12.516;2024-02-26T05:55:35;98874.97;;;3.11;100.00
19748;BME280;10032;51.386;12.516;2024-02-26T05:58:01;98874.97;;;3.11;100.00
19748;BME280;10032;51.386;12.516;2024-02-26T06:00:26;98875.41;;;3.08;100.00
19748;BME280;10032;51.386;12.516;2024-02-26T06:02:51;98876.25;;;3.09;100.00
19748;BME280;10032;51.386;12.516;2024-02-26T06:05:17;98879.97;;;3.08;100.00
19748;BME280;10032;51.386;12.516;2024-02-26T06:07:42;98874.41;;;3.09;100.00
19748;BME280;10032;51.386;12.516;2024-02-26T06:10:08;98874.84;;;3.06;100.00
19748;BME280;10032;51.386;12.516;2024-02-26T06:12:36;98868.34;;;3.02;100.00
19748;BME280;10032;51.386;12.516;2024-02-26T06:15:02;98866.47;;;3.03;100.00
19748;BME280;10032;51.386;12.516;2024-02-26T06:17:27;98863.94;;;3.08;100.00
19748;BME280;10032;51.386;12.516;2024-02-26T06:19:53;98866.94;;;3.11;100.00
19748;BME280;10032;51.386;12.516;2024-02-26T06:22:19;98871.59;;;3.16;100.00
19748;BME280;10032;51.386;12.516;2024-02-26T06:24:44;98873.22;;;3.17;100.00
19748;BME280;10032;51.386;12.516;2024-02-26T06:27:10;98881.00;;;3.18;100.00
19748;BME280;10032;51.386;12.516;2024-02-26T06:29:35;98875.19;;;3.21;100.00
19748;BME280;10032;51.386;12.516;2024-02-26T06:32:00;98881.13;;;3.23;100.00
19748;BME280;10032;51.386;12.516;2024-02-26T06:34:26;98881.22;;;3.28;100.00
19748;BME280;10032;51.386;12.516;2024-02-26T06:36:51;98883.47;;;3.31;100.00
19748;BME280;10032;51.386;12.516;2024-02-26T06:39:16;98883.09;;;3.39;100.00
19748;BME280;10032;51.386;12.516;2024-02-26T06:41:43;98887.97;;;3.42;100.00
19748;BME280;10032;51.386;12.516;2024-02-26T06:44:08;98894.63;;;3.40;100.00
19748;BME280;10032;51.386;12.516;2024-02-26T06:46:34;98900.31;;;3.43;100.00
19748;BME280;10032;51.386;12.516;2024-02-26T06:49:00;98894.94;;;3.43;100.00
19748;BME280;10032;51.386;12.516;2024-02-26T06:51:25;98895.28;;;3.47;100.00
19748;BME280;10032;51.386;12.516;2024-02-26T06:53:50;98906.34;;;3.50;100.00
19748;BME280;10032;51.386;12.516;2024-02-26T06:56:16;98896.00;;;3.54;100.00
19748;BME280;10032;51.386;12.516;2024-02-26T06:58:41;98901.22;;;3.60;100.00
19748;BME280;10032;51.386;12.516;2024-02-26T07:01:07;98908.28;;;3.66;100.00
19748;BME280;10032;51.386;12.516;2024-02-26T07:03:33;98906.09;;;3.75;100.00
19748;BME280;10032;51.386;12.516;2024-02-26T07:05:59;98914.47;;;3.78;100.00
19748;BME280;10032;51.386;12.516;2024-02-26T07:08:24;98914.66;;;3.88;100.00
19748;BME280;10032;51.386;12.516;2024-02-26T07:10:49;98916.63;;;3.93;100.00
19748;BME280;10032;51.386;12.516;2024-02-26T07:13:15;98923.94;;;3.97;100.00
19748;BME280;10032;51.386;12.516;2024-02-26T07:15:40;98913.56;;;4.01;100.00
19748;BME280;10032;51.386;12.516;2024-02-26T07:18:06;98916.50;;;3.99;100.00
19748;BME280;10032;51.386;12.516;2024-02-26T07:20:31;98914.16;;;4.03;100.00
19748;BME280;10032;51.386;12.516;2024-02-26T07:22:57;98910.53;;;4.09;100.00
19748;BME280;10032;51.386;12.516;2024-02-26T07:25:23;98911.44;;;4.14;100.00
19748;BME280;10032;51.386;12.516;2024-02-26T07:27:50;98905.69;;;4.22;100.00
19748;BME280;10032;51.386;12.516;2024-02-26T07:30:15;98901.81;;;4.30;100.00
19748;BME280;10032;51.386;12.516;2024-02-26T07:32:42;98908.66;;;4.37;100.00
19748;BME280;10032;51.386;12.516;2024-02-26T07:35:07;98905.66;;;4.50;100.00
19748;BME280;10032;51.386;12.516;2024-02-26T07:37:33;98904.56;;;4.63;100.00
19748;BME280;10032;51.386;12.516;2024-02-26T07:39:58;98910.91;;;4.73;100.00
19748;BME280;10032;51.386;12.516;2024-02-26T07:42:24;98914.91;;;4.87;100.00
19748;BME280;10032;51.386;12.516;2024-02-26T07:44:50;98911.06;;;5.00;100.00
19748;BME280;10032;51.386;12.516;2024-02-26T07:47:16;98911.47;;;5.08;100.00
19748;BME280;10032;51.386;12.516;2024-02-26T07:49:41;98905.72;;;5.16;100.00
19748;BME280;10032;51.386;12.516;2024-02-26T07:52:07;98907.19;;;5.24;100.00
19748;BME280;10032;51.386;12.516;2024-02-26T07:54:32;98915.69;;;5.37;100.00
19748;BME280;10032;51.386;12.516;2024-02-26T07:56:57;98907.22;;;5.45;100.00
19748;BME280;10032;51.386;12.516;2024-02-26T07:59:23;98907.19;;;5.62;100.00
19748;BME280;10032;51.386;12.516;2024-02-26T08:01:52;98919.69;;;5.73;100.00
19748;BME280;10032;51.386;12.516;2024-02-26T08:04:17;98910.41;;;5.80;100.00
19748;BME280;10032;51.386;12.516;2024-02-26T08:06:43;98922.91;;;5.91;100.00
19748;BME280;10032;51.386;12.516;2024-02-26T08:09:08;98924.06;;;5.95;100.00
19748;BME280;10032;51.386;12.516;2024-02-26T08:11:34;98928.25;;;6.08;100.00
19748;BME280;10032;51.386;12.516;2024-02-26T08:13:59;98927.00;;;6.15;100.00
19748;BME280;10032;51.386;12.516;2024-02-26T08:16:24;98927.19;;;6.09;100.00
19748;BME280;10032;51.386;12.516;2024-02-26T08:18:50;98935.91;;;6.21;100.00
19748;BME280;10032;51.386;12.516;2024-02-26T08:21:15;98925.03;;;6.32;100.00
19748;BME280;10032;51.386;12.516;2024-02-26T08:23:43;98929.94;;;6.40;100.00
19748;BME280;10032;51.386;12.516;2024-02-26T08:26:08;98921.88;;;6.40;100.00
19748;BME280;10032;51.386;12.516;2024-02-26T08:28:36;98922.50;;;6.47;100.00
19748;BME280;10032;51.386;12.516;2024-02-26T08:31:02;98924.78;;;6.60;100.00
19748;BME280;10032;51.386;12.516;2024-02-26T08:33:27;98926.97;;;6.63;100.00
19748;BME280;10032;51.386;12.516;2024-02-26T08:35:53;98929.81;;;6.78;100.00
19748;BME280;10032;51.386;12.516;2024-02-26T08:38:19;98929.38;;;6.91;100.00
19748;BME280;10032;51.386;12.516;2024-02-26T08:40:44;98929.47;;;7.01;100.00
19748;BME280;10032;51.386;12.516;2024-02-26T08:43:10;98937.72;;;7.21;100.00
19748;BME280;10032;51.386;12.516;2024-02-26T08:45:35;98935.47;;;7.45;100.00
19748;BME280;10032;51.386;12.516;2024-02-26T08:48:01;98936.13;;;7.62;100.00
19748;BME280;10032;51.386;12.516;2024-02-26T08:50:26;98934.28;;;7.72;100.00
19748;BME280;10032;51.386;12.516;2024-02-26T08:52:52;98937.59;;;7.79;100.00
19748;BME280;10032;51.386;12.516;2024-02-26T08:55:18;98941.38;;;7.88;100.00
19748;BME280;10032;51.386;12.516;2024-02-26T08:57:44;98940.91;;;7.96;100.00
19748;BME280;10032;51.386;12.516;2024-02-26T09:00:09;98943.41;;;8.13;100.00
19748;BME280;10032;51.386;12.516;2024-02-26T09:02:36;98943.50;;;8.33;100.00
19748;BME280;10032;51.386;12.516;2024-02-26T09:05:04;98958.66;;;8.49;100.00
19748;BME280;10032;51.386;12.516;2024-02-26T09:07:31;98945.47;;;8.57;100.00
19748;BME280;10032;51.386;12.516;2024-02-26T09:09:56;98945.78;;;8.81;100.00
19748;BME280;10032;51.386;12.516;2024-02-26T09:12:21;98942.59;;;9.09;100.00
19748;BME280;10032;51.386;12.516;2024-02-26T09:14:47;98939.34;;;9.17;100.00
19748;BME280;10032;51.386;12.516;2024-02-26T09:17:12;98936.91;;;9.35;100.00
19748;BME280;10032;51.386;12.516;2024-02-26T09:19:38;98936.91;;;9.55;100.00
19748;BME280;10032;51.386;12.516;2024-02-26T09:22:04;98936.88;;;9.70;100.00
19748;BME280;10032;51.386;12.516;2024-02-26T09:24:29;98935.75;;;9.86;100.00
19748;BME280;10032;51.386;12.516;2024-02-26T09:26:55;98949.25;;;9.96;100.00
19748;BME280;10032;51.386;12.516;2024-02-26T09:29:21;98942.19;;;10.10;100.00
19748;BME280;10032;51.386;12.516;2024-02-26T09:31:46;98940.53;;;10.24;100.00
19748;BME280;10032;51.386;12.516;2024-02-26T09:34:14;98937.25;;;10.37;100.00
19748;BME280;10032;51.386;12.516;2024-02-26T09:36:40;98935.81;;;10.45;100.00
19748;BME280;10032;51.386;12.516;2024-02-26T09:39:05;98935.22;;;10.58;100.00
19748;BME280;10032;51.386;12.516;2024-02-26T09:41:32;98943.31;;;10.63;100.00
19748;BME280;10032;51.386;12.516;2024-02-26T09:43:58;98945.22;;;10.62;100.00
19748;BME280;10032;51.386;12.516;2024-02-26T09:46:27;98945.06;;;10.87;100.00
19748;BME280;10032;51.386;12.516;2024-02-26T09:48:53;98951.56;;;10.91;100.00
19748;BME280;10032;51.386;12.516;2024-02-26T09:51:19;98958.88;;;10.91;100.00
19748;BME280;10032;51.386;12.516;2024-02-26T09:53:51;98954.97;;;11.07;100.00
19748;BME280;10032;51.386;12.516;2024-02-26T09:56:17;98954.41;;;11.10;100.00
19748;BME280;10032;51.386;12.516;2024-02-26T09:58:43;98959.53;;;11.16;100.00
19748;BME280;10032;51.386;12.516;2024-02-26T10:01:21;98954.13;;;11.11;100.00
19748;BME280;10032;51.386;12.516;2024-02-26T10:03:54;98953.50;;;11.19;100.00
19748;BME280;10032;51.386;12.516;2024-02-26T10:06:20;98952.31;;;11.35;100.00
19748;BME280;10032;51.386;12.516;2024-02-26T10:08:46;98946.28;;;11.43;100.00
19748;BME280;10032;51.386;12.516;2024-02-26T10:11:14;98956.72;;;11.60;100.00
19748;BME280;10032;51.386;12.516;2024-02-26T10:13:40;98956.19;;;11.58;100.00
19748;BME280;10032;51.386;12.516;2024-02-26T10:16:06;98959.63;;;11.68;100.00
19748;BME280;10032;51.386;12.516;2024-02-26T10:18:49;98960.13;;;11.75;100.00
19748;BME280;10032;51.386;12.516;2024-02-26T10:21:19;98954.78;;;11.94;100.00
19748;BME280;10032;51.386;12.516;2024-02-26T10:23:45;98964.03;;;11.93;100.00
19748;BME280;10032;51.386;12.516;2024-02-26T10:26:14;98970.97;;;12.04;100.00
19748;BME280;10032;51.386;12.516;2024-02-26T10:28:44;98969.22;;;12.13;100.00
19748;BME280;10032;51.386;12.516;2024-02-26T10:31:10;98974.59;;;12.18;100.00
19748;BME280;10032;51.386;12.516;2024-02-26T10:33:37;98966.22;;;12.14;100.00
19748;BME280;10032;51.386;12.516;2024-02-26T10:36:04;98972.69;;;12.18;100.00
19748;BME280;10032;51.386;12.516;2024-02-26T10:38:30;98974.34;;;12.14;100.00
19748;BME280;10032;51.386;12.516;2024-02-26T10:40:56;98977.88;;;11.91;100.00
19748;BME280;10032;51.386;12.516;2024-02-26T10:43:21;98974.41;;;12.09;100.00
19748;BME280;10032;51.386;12.516;2024-02-26T10:45:46;98973.25;;;12.15;100.00
19748;BME280;10032;51.386;12.516;2024-02-26T10:48:14;98981.00;;;12.27;100.00
19748;BME280;10032;51.386;12.516;2024-02-26T10:50:40;98984.34;;;12.19;100.00
19748;BME280;10032;51.386;12.516;2024-02-26T10:53:13;98979.72;;;12.19;100.00
19748;BME280;10032;51.386;12.516;2024-02-26T10:55:40;98991.06;;;12.26;100.00
19748;BME280;10032;51.386;12.516;2024-02-26T10:58:08;98976.69;;;12.26;100.00
19748;BME280;10032;51.386;12.516;2024-02-26T11:00:34;98979.63;;;12.29;100.00
19748;BME280;10032;51.386;12.516;2024-02-26T11:03:02;98975.81;;;12.30;100.00
19748;BME280;10032;51.386;12.516;2024-02-26T11:05:28;98979.91;;;12.51;100.00
19748;BME280;10032;51.386;12.516;2024-02-26T11:07:54;98982.91;;;12.50;100.00
19748;BME280;10032;51.386;12.516;2024-02-26T11:10:21;98982.63;;;12.51;100.00
19748;BME280;10032;51.386;12.516;2024-02-26T11:12:48;98982.63;;;12.51;100.00
19748;BME280;10032;51.386;12.516;2024-02-26T11:15:15;98987.00;;;12.47;100.00
19748;BME280;10032;51.386;12.516;2024-02-26T11:17:42;98991.59;;;12.52;100.00
19748;BME280;10032;51.386;12.516;2024-02-26T11:20:10;98983.72;;;12.50;100.00
19748;BME280;10032;51.386;12.516;2024-02-26T11:22:38;98980.88;;;12.60;100.00
19748;BME280;10032;51.386;12.516;2024-02-26T11:25:04;98988.56;;;12.53;100.00
19748;BME280;10032;51.386;12.516;2024-02-26T11:27:35;98979.19;;;12.64;100.00
19748;BME280;10032;51.386;12.516;2024-02-26T11:30:02;98978.53;;;12.72;100.00
19748;BME280;10032;51.386;12.516;2024-02-26T11:32:30;98984.56;;;12.69;100.00
19748;BME280;10032;51.386;12.516;2024-02-26T11:34:57;98981.28;;;12.91;100.00
19748;BME280;10032;51.386;12.516;2024-02-26T11:37:23;98979.44;;;12.86;100.00
19748;BME280;10032;51.386;12.516;2024-02-26T11:39:51;98973.19;;;12.86;100.00
19748;BME280;10032;51.386;12.516;2024-02-26T11:42:17;98977.06;;;13.03;100.00
19748;BME280;10032;51.386;12.516;2024-02-26T11:44:43;98966.53;;;12.97;100.00
19748;BME280;10032;51.386;12.516;2024-02-26T11:47:13;98960.91;;;12.88;100.00
19748;BME280;10032;51.386;12.516;2024-02-26T11:49:39;98960.22;;;13.01;100.00
19748;BME280;10032;51.386;12.516;2024-02-26T11:52:07;98966.69;;;13.05;100.00
19748;BME280;10032;51.386;12.516;2024-02-26T11:54:49;98963.97;;;13.05;100.00
19748;BME280;10032;51.386;12.516;2024-02-26T11:59:51;98961.53;;;13.22;100.00
19748;BME280;10032;51.386;12.516;2024-02-26T12:02:51;98964.91;;;13.14;100.00
19748;BME280;10032;51.386;12.516;2024-02-26T12:05:23;98965.06;;;13.04;100.00
19748;BME280;10032;51.386;12.516;2024-02-26T12:07:53;98962.28;;;13.09;100.00
19748;BME280;10032;51.386;12.516;2024-02-26T12:10:28;98968.97;;;13.17;100.00
19748;BME280;10032;51.386;12.516;2024-02-26T12:13:00;98967.78;;;13.23;100.00
19748;BME280;10032;51.386;12.516;2024-02-26T12:15:36;98972.56;;;13.12;100.00
19748;BME280;10032;51.386;12.516;2024-02-26T12:18:03;98977.66;;;12.95;100.00
19748;BME280;10032;51.386;12.516;2024-02-26T12:20:29;98971.69;;;12.98;100.00
19748;BME280;10032;51.386;12.516;2024-02-26T12:22:56;98970.81;;;12.79;100.00
19748;BME280;10032;51.386;12.516;2024-02-26T12:25:26;98977.72;;;12.90;100.00
19748;BME280;10032;51.386;12.516;2024-02-26T12:27:53;98974.94;;;12.95;100.00
19748;BME280;10032;51.386;12.516;2024-02-26T12:30:18;98979.34;;;12.96;100.00
19748;BME280;10032;51.386;12.516;2024-02-26T12:32:45;98978.63;;;12.86;100.00
19748;BME280;10032;51.386;12.516;2024-02-26T12:35:11;98980.56;;;12.85;100.00
19748;BME280;10032;51.386;12.516;2024-02-26T12:37:37;98977.66;;;12.95;100.00
19748;BME280;10032;51.386;12.516;2024-02-26T12:40:08;98975.25;;;12.94;100.00
19748;BME280;10032;51.386;12.516;2024-02-26T12:42:34;98980.88;;;13.02;100.00
19748;BME280;10032;51.386;12.516;2024-02-26T12:45:05;98981.38;;;13.04;100.00